createdAt,value
2017-02-10T00:00:13.898Z,24.24
2017-02-10T00:01:14.019Z,24.22
2017-02-10T00:02:14.227Z,24.21
2017-02-10T00:03:14.338Z,24.25
2017-02-10T00:04:14.257Z,24.15
2017-02-10T00:05:14.219Z,24.15
2017-02-10T00:06:14.050Z,24.2
2017-02-10T00:07:14.426Z,24.28
2017-02-10T00:08:14.370Z,24.2
2017-02-10T00:09:14.333Z,24.16
2017-02-10T00:10:13.946Z,24.13
2017-02-10T00:11:14.330Z,24.1
2017-02-10T00:12:14.335Z,24.16
2017-02-10T00:13:14.091Z,24.09
2017-02-10T00:14:13.965Z,24.18
2017-02-10T00:15:15.050Z,24.2
2017-02-10T00:16:14.346Z,24.15
2017-02-10T00:17:14.285Z,24.22
2017-02-10T00:18:14.551Z,24.13
2017-02-10T00:19:14.428Z,24.12
2017-02-10T00:20:13.966Z,24.15
2017-02-10T00:21:14.382Z,24.22
2017-02-10T00:22:14.407Z,24.24
2017-02-10T00:23:14.024Z,24.24
2017-02-10T00:24:14.089Z,24.15
2017-02-10T00:25:14.543Z,24.2
2017-02-10T00:26:14.373Z,24.2
2017-02-10T00:27:14.489Z,24.21
2017-02-10T00:28:14.129Z,24.18
2017-02-10T00:29:14.534Z,24.13
2017-02-10T00:30:14.536Z,24.13
2017-02-10T00:31:14.105Z,24.13
2017-02-10T00:32:14.108Z,24.22
2017-02-10T00:33:14.136Z,24.18
2017-02-10T00:34:13.719Z,24.1
2017-02-10T00:35:14.130Z,24.13
2017-02-10T00:36:14.108Z,24.16
2017-02-10T00:37:14.661Z,24.15
2017-02-10T00:38:14.548Z,24.13
2017-02-10T00:39:14.648Z,24.21
2017-02-10T00:40:14.088Z,24.05
2017-02-10T00:41:14.464Z,24.08
2017-02-10T00:42:14.454Z,24.03
2017-02-10T00:43:14.560Z,24.1
2017-02-10T00:44:14.757Z,24.22
2017-02-10T00:45:14.533Z,24.12
2017-02-10T00:46:14.318Z,24.2
2017-02-10T00:47:15.256Z,24.15
2017-02-10T00:48:14.600Z,24.08
2017-02-10T00:49:13.869Z,24.1
2017-02-10T00:50:14.758Z,24.02
2017-02-10T00:51:14.630Z,24.05
2017-02-10T00:52:14.189Z,24.15
2017-02-10T00:53:14.525Z,24.08
2017-02-10T00:54:14.567Z,24.1
2017-02-10T00:55:14.823Z,24.03
2017-02-10T00:56:14.654Z,24.06
2017-02-10T00:57:13.849Z,24.12
2017-02-10T00:58:15.146Z,24
2017-02-10T00:59:13.906Z,24.09
2017-02-10T01:00:14.660Z,24.02
2017-02-10T01:01:13.891Z,24.08
2017-02-10T01:02:14.388Z,24.06
2017-02-10T01:03:14.810Z,23.95
2017-02-10T01:04:14.554Z,24.02
2017-02-10T01:05:14.797Z,24.03
2017-02-10T01:06:14.632Z,23.93
2017-02-10T01:07:14.349Z,24.13
2017-02-10T01:08:14.719Z,24.09
2017-02-10T01:09:14.728Z,24.03
2017-02-10T01:10:14.647Z,24.05
2017-02-10T01:11:14.796Z,23.98
2017-02-10T01:12:13.806Z,24
2017-02-10T01:13:14.675Z,23.98
2017-02-10T01:14:14.343Z,24.12
2017-02-10T01:15:13.957Z,24.09
2017-02-10T01:16:14.755Z,24.05
2017-02-10T01:17:14.878Z,24.03
2017-02-10T01:18:14.641Z,24.08
2017-02-10T01:19:14.537Z,24.09
2017-02-10T01:20:14.513Z,24
2017-02-10T01:21:14.858Z,23.97
2017-02-10T01:22:14.776Z,24.03
2017-02-10T01:23:14.103Z,24
2017-02-10T01:24:14.352Z,24.08
2017-02-10T01:25:14.935Z,23.97
2017-02-10T01:26:15.449Z,23.95
2017-02-10T01:27:14.175Z,24
2017-02-10T01:28:14.410Z,24.03
2017-02-10T01:29:14.113Z,24.03
2017-02-10T01:30:14.585Z,23.97
2017-02-10T01:31:14.882Z,24
2017-02-10T01:32:14.435Z,23.98
2017-02-10T01:33:14.938Z,23.95
2017-02-10T01:34:15.089Z,23.97
2017-02-10T01:35:14.862Z,24.09
2017-02-10T01:36:15.065Z,23.98
2017-02-10T01:37:14.800Z,24.06
2017-02-10T01:38:14.914Z,24.06
2017-02-10T01:39:15.003Z,24.03
2017-02-10T01:40:14.478Z,24.03
2017-02-10T01:41:14.777Z,23.93
2017-02-10T01:42:14.923Z,23.94
2017-02-10T01:43:14.774Z,24
2017-02-10T01:44:14.796Z,24
2017-02-10T01:45:14.590Z,24
2017-02-10T01:46:14.927Z,24
2017-02-10T01:47:14.131Z,23.98
2017-02-10T01:48:14.658Z,24.06
2017-02-10T01:49:15.100Z,24
2017-02-10T01:50:14.985Z,24
2017-02-10T01:51:14.947Z,24.03
2017-02-10T01:52:14.602Z,24
2017-02-10T01:53:14.920Z,23.97
2017-02-10T01:54:14.540Z,24.08
2017-02-10T01:55:14.632Z,23.98
2017-02-10T01:56:15.167Z,24
2017-02-10T01:57:14.931Z,23.97
2017-02-10T01:58:14.985Z,23.98
2017-02-10T01:59:14.496Z,24.03
2017-02-10T02:00:14.997Z,24.03
2017-02-10T02:01:14.771Z,24.02
2017-02-10T02:02:15.333Z,23.97
2017-02-10T02:03:14.794Z,23.94
2017-02-10T02:04:14.413Z,23.97
2017-02-10T02:05:15.068Z,24.03
2017-02-10T02:06:14.630Z,24.03
2017-02-10T02:07:15.024Z,23.98
2017-02-10T02:08:15.157Z,24.03
2017-02-10T02:09:15.085Z,24.02
2017-02-10T02:10:15.084Z,23.98
2017-02-10T02:11:14.681Z,24.02
2017-02-10T02:12:15.189Z,24.02
2017-02-10T02:13:14.338Z,24
2017-02-10T02:14:15.245Z,24.03
2017-02-10T02:15:14.648Z,24.05
2017-02-10T02:16:14.997Z,23.95
2017-02-10T02:17:15.103Z,23.98
2017-02-10T02:18:14.837Z,23.97
2017-02-10T02:19:15.281Z,23.98
2017-02-10T02:20:15.147Z,23.95
2017-02-10T02:21:15.243Z,24
2017-02-10T02:22:15.266Z,24
2017-02-10T02:23:15.162Z,24.03
2017-02-10T02:24:15.155Z,23.98
2017-02-10T02:25:14.850Z,23.97
2017-02-10T02:26:15.160Z,24
2017-02-10T02:27:15.376Z,24
2017-02-10T02:28:15.365Z,24.02
2017-02-10T02:29:15.453Z,24.03
2017-02-10T02:30:15.235Z,24.03
2017-02-10T02:31:15.093Z,23.98
2017-02-10T02:32:15.191Z,23.98
2017-02-10T02:33:14.422Z,23.98
2017-02-10T02:34:15.195Z,24
2017-02-10T02:35:14.770Z,24.06
2017-02-10T02:36:15.276Z,24.05
2017-02-10T02:37:15.198Z,24.02
2017-02-10T02:38:15.270Z,24
2017-02-10T02:39:15.194Z,24.09
2017-02-10T02:40:14.804Z,24.06
2017-02-10T02:41:15.277Z,24.08
2017-02-10T02:42:15.212Z,24.09
2017-02-10T02:43:15.275Z,24.08
2017-02-10T02:44:15.359Z,24.08
2017-02-10T02:45:15.241Z,24.1
2017-02-10T02:46:15.340Z,24.08
2017-02-10T02:47:15.248Z,24.05
2017-02-10T02:48:14.460Z,23.97
2017-02-10T02:49:15.264Z,24.06
2017-02-10T02:50:15.217Z,23.94
2017-02-10T02:51:15.322Z,24.02
2017-02-10T02:57:01.793Z,24.12
2017-02-10T02:58:01.807Z,24.08
2017-02-10T02:59:01.462Z,24.08
2017-02-10T03:00:01.817Z,23.95
2017-02-10T03:01:01.377Z,23.98
2017-02-10T03:02:01.431Z,24.08
2017-02-10T03:03:01.836Z,23.9
2017-02-10T03:04:02.818Z,24.09
2017-02-10T03:05:01.848Z,24.05
2017-02-10T03:06:02.654Z,24.08
2017-02-10T03:07:01.827Z,24.06
2017-02-10T03:08:01.472Z,23.97
2017-02-10T03:09:01.877Z,24.05
2017-02-10T03:10:01.932Z,23.98
2017-02-10T03:11:01.934Z,24.08
2017-02-10T03:12:02.004Z,24.03
2017-02-10T03:13:01.850Z,23.97
2017-02-10T03:14:01.857Z,24.05
2017-02-10T03:15:03.003Z,23.93
2017-02-10T03:16:01.919Z,24.02
2017-02-10T03:17:02.333Z,24.05
2017-02-10T03:18:01.543Z,23.97
2017-02-10T03:19:01.888Z,24.03
2017-02-10T03:20:01.950Z,24.03
2017-02-10T03:21:02.050Z,24.03
2017-02-10T03:22:01.959Z,24
2017-02-10T03:23:01.968Z,24
2017-02-10T03:24:01.972Z,24.1
2017-02-10T03:25:02.026Z,24.06
2017-02-10T03:26:02.332Z,24.08
2017-02-10T03:27:01.593Z,24.05
2017-02-10T03:28:01.601Z,24.03
2017-02-10T03:29:02.001Z,24.02
2017-02-10T03:30:03.145Z,24.02
2017-02-10T03:31:02.015Z,24.02
2017-02-10T03:32:01.969Z,24.03
2017-02-10T03:33:01.685Z,23.98
2017-02-10T03:34:01.638Z,24.03
2017-02-10T03:35:02.087Z,24.09
2017-02-10T03:36:01.996Z,24.15
2017-02-10T03:37:02.052Z,23.94
2017-02-10T03:38:02.063Z,24.06
2017-02-10T03:39:03.021Z,24
2017-02-10T03:40:02.124Z,23.98
2017-02-10T03:41:02.780Z,23.94
2017-02-10T03:42:02.086Z,24.06
2017-02-10T03:43:02.091Z,24.09
2017-02-10T03:44:01.750Z,24.08
2017-02-10T03:45:02.121Z,24.03
2017-02-10T03:46:02.058Z,24.08
2017-02-10T03:47:02.063Z,24.02
2017-02-10T03:48:02.228Z,24.06
2017-02-10T03:49:02.085Z,24.03
2017-02-10T03:50:03.006Z,24.03
2017-02-10T03:51:02.092Z,24
2017-02-10T03:52:02.149Z,24
2017-02-10T03:53:02.156Z,24.06
2017-02-10T03:54:02.213Z,23.95
2017-02-10T03:55:02.174Z,23.95
2017-02-10T03:56:01.829Z,24.03
2017-02-10T03:57:01.389Z,24.08
2017-02-10T03:58:02.188Z,24.05
2017-02-10T03:59:03.246Z,23.98
2017-02-10T04:00:02.549Z,24.09
2017-02-10T04:01:02.463Z,24.02
2017-02-10T04:02:02.426Z,24.06
2017-02-10T04:03:02.272Z,23.97
2017-02-10T04:04:01.779Z,23.97
2017-02-10T04:05:02.233Z,23.98
2017-02-10T04:06:02.245Z,23.97
2017-02-10T04:07:02.249Z,24.08
2017-02-10T04:08:01.806Z,23.97
2017-02-10T04:09:02.260Z,24
2017-02-10T04:10:02.916Z,24.02
2017-02-10T04:11:02.268Z,23.98
2017-02-10T04:12:02.231Z,24.06
2017-02-10T04:13:01.889Z,23.97
2017-02-10T04:14:03.289Z,24.02
2017-02-10T04:15:02.348Z,23.98
2017-02-10T04:16:01.907Z,24.02
2017-02-10T04:17:02.415Z,24
2017-02-10T04:18:02.267Z,24.03
2017-02-10T04:19:02.325Z,23.98
2017-02-10T04:20:02.331Z,24
2017-02-10T04:21:02.834Z,24.03
2017-02-10T04:22:02.691Z,24.06
2017-02-10T04:23:01.933Z,23.98
2017-02-10T04:24:02.405Z,23.97
2017-02-10T04:25:03.122Z,24
2017-02-10T04:26:01.973Z,24.02
2017-02-10T04:27:02.321Z,24
2017-02-10T04:28:02.381Z,23.98
2017-02-10T04:29:02.388Z,23.94
2017-02-10T04:30:02.048Z,24.03
2017-02-10T04:31:02.453Z,24.08
2017-02-10T04:32:02.354Z,24.02
2017-02-10T04:33:02.411Z,24.03
2017-02-10T04:34:03.943Z,24
2017-02-10T04:35:02.476Z,23.95
2017-02-10T04:36:03.139Z,23.98
2017-02-10T04:37:02.388Z,23.98
2017-02-10T04:38:02.151Z,23.98
2017-02-10T04:39:02.401Z,24.08
2017-02-10T04:40:02.458Z,24.02
2017-02-10T04:41:02.463Z,23.97
2017-02-10T04:42:02.518Z,23.97
2017-02-10T04:43:02.525Z,23.93
2017-02-10T04:44:02.532Z,23.93
2017-02-10T04:45:03.445Z,23.97
2017-02-10T04:46:02.546Z,23.95
2017-02-10T04:47:02.620Z,23.95
2017-02-10T04:48:02.457Z,24
2017-02-10T04:49:02.469Z,23.97
2017-02-10T04:50:02.526Z,23.97
2017-02-10T04:51:02.531Z,23.94
2017-02-10T04:52:02.584Z,23.95
2017-02-10T04:53:02.492Z,23.9
2017-02-10T04:54:02.546Z,23.94
2017-02-10T04:55:02.505Z,23.95
2017-02-10T04:56:02.879Z,23.91
2017-02-10T04:57:02.615Z,23.95
2017-02-10T04:58:02.523Z,23.97
2017-02-10T04:59:02.578Z,23.95
2017-02-10T05:00:02.585Z,23.94
2017-02-10T05:01:02.643Z,24
2017-02-10T05:02:02.596Z,24
2017-02-10T05:03:02.661Z,23.98
2017-02-10T05:04:02.710Z,23.95
2017-02-10T05:05:02.568Z,23.95
2017-02-10T05:06:02.723Z,24.03
2017-02-10T05:07:02.678Z,23.97
2017-02-10T05:08:02.589Z,24
2017-02-10T05:09:04.067Z,23.97
2017-02-10T05:10:02.700Z,23.97
2017-02-10T05:11:02.606Z,23.93
2017-02-10T05:12:02.766Z,23.91
2017-02-10T05:13:02.619Z,23.98
2017-02-10T05:14:02.675Z,23.9
2017-02-10T05:15:02.631Z,23.95
2017-02-10T05:16:02.295Z,23.93
2017-02-10T05:17:02.694Z,23.91
2017-02-10T05:18:02.752Z,24
2017-02-10T05:19:02.361Z,23.85
2017-02-10T05:20:03.678Z,23.94
2017-02-10T05:21:02.331Z,23.85
2017-02-10T05:22:02.826Z,24.02
2017-02-10T05:23:02.341Z,23.97
2017-02-10T05:24:02.294Z,23.91
2017-02-10T05:25:02.698Z,23.91
2017-02-10T05:26:02.754Z,23.95
2017-02-10T05:27:02.762Z,23.88
2017-02-10T05:28:02.818Z,23.83
2017-02-10T05:29:03.915Z,23.93
2017-02-10T05:30:02.789Z,23.93
2017-02-10T05:31:03.239Z,23.91
2017-02-10T05:32:02.397Z,23.85
2017-02-10T05:33:02.744Z,23.91
2017-02-10T05:34:02.458Z,23.85
2017-02-10T05:35:02.415Z,23.88
2017-02-10T05:36:02.767Z,24
2017-02-10T05:37:02.821Z,23.94
2017-02-10T05:38:02.783Z,23.94
2017-02-10T05:39:02.393Z,23.93
2017-02-10T05:40:03.554Z,23.95
2017-02-10T05:41:02.852Z,24
2017-02-10T05:42:02.904Z,24
2017-02-10T05:43:02.862Z,24.03
2017-02-10T05:44:02.947Z,23.91
2017-02-10T05:45:02.431Z,23.85
2017-02-10T05:46:02.879Z,23.88
2017-02-10T05:47:02.838Z,23.94
2017-02-10T05:48:02.944Z,23.93
2017-02-10T05:49:02.508Z,23.94
2017-02-10T05:50:02.870Z,23.94
2017-02-10T05:51:03.216Z,24
2017-02-10T05:52:02.918Z,23.94
2017-02-10T05:53:02.874Z,23.95
2017-02-10T05:54:03.184Z,23.95
2017-02-10T05:55:02.936Z,23.93
2017-02-10T05:56:02.894Z,23.91
2017-02-10T05:57:02.999Z,23.93
2017-02-10T05:58:02.907Z,23.97
2017-02-10T05:59:02.913Z,23.93
2017-02-10T06:00:02.921Z,23.94
2017-02-10T06:01:02.930Z,23.93
2017-02-10T06:02:03.084Z,23.95
2017-02-10T06:03:03.040Z,24.02
2017-02-10T06:04:03.039Z,24
2017-02-10T06:05:03.001Z,23.93
2017-02-10T06:06:03.011Z,23.91
2017-02-10T06:07:03.016Z,23.93
2017-02-10T06:08:03.130Z,23.95
2017-02-10T06:09:03.277Z,23.9
2017-02-10T06:10:03.084Z,23.9
2017-02-10T06:11:03.039Z,23.88
2017-02-10T06:12:03.003Z,23.98
2017-02-10T06:13:03.156Z,24
2017-02-10T06:14:02.716Z,23.95
2017-02-10T06:15:03.067Z,23.95
2017-02-10T06:16:03.075Z,23.94
2017-02-10T06:17:03.077Z,23.94
2017-02-10T06:18:03.082Z,23.94
2017-02-10T06:19:03.143Z,23.9
2017-02-10T06:20:03.097Z,23.79
2017-02-10T06:21:03.055Z,23.9
2017-02-10T06:22:02.715Z,23.9
2017-02-10T06:23:03.066Z,23.9
2017-02-10T06:24:02.927Z,23.97
2017-02-10T06:25:02.687Z,23.93
2017-02-10T06:26:04.120Z,23.9
2017-02-10T06:27:02.749Z,23.84
2017-02-10T06:28:03.102Z,23.9
2017-02-10T06:29:03.192Z,23.76
2017-02-10T06:30:02.764Z,23.88
2017-02-10T06:31:02.773Z,23.88
2017-02-10T06:32:03.174Z,23.88
2017-02-10T06:33:03.230Z,23.88
2017-02-10T06:34:02.347Z,23.85
2017-02-10T06:35:02.801Z,23.93
2017-02-10T06:36:03.151Z,23.93
2017-02-10T06:37:03.913Z,23.84
2017-02-10T06:38:02.765Z,23.87
2017-02-10T06:39:03.218Z,23.93
2017-02-10T06:40:03.185Z,23.94
2017-02-10T06:41:02.785Z,23.91
2017-02-10T06:42:03.240Z,23.91
2017-02-10T06:43:03.196Z,23.76
2017-02-10T06:44:02.811Z,23.95
2017-02-10T06:45:03.255Z,23.95
2017-02-10T06:46:04.503Z,23.91
2017-02-10T06:47:03.275Z,23.95
2017-02-10T06:48:03.677Z,23.91
2017-02-10T06:49:03.242Z,23.91
2017-02-10T06:50:03.241Z,23.93
2017-02-10T06:51:03.253Z,23.91
2017-02-10T06:52:03.252Z,23.94
2017-02-10T06:53:03.306Z,23.9
2017-02-10T06:54:03.316Z,23.98
2017-02-10T06:55:03.272Z,23.97
2017-02-10T06:56:03.384Z,23.93
2017-02-10T06:57:04.240Z,24.02
2017-02-10T06:58:03.291Z,23.97
2017-02-10T06:59:03.402Z,24.03
2017-02-10T07:00:03.355Z,24
2017-02-10T07:01:03.366Z,23.91
2017-02-10T07:02:03.370Z,23.85
2017-02-10T07:03:03.325Z,23.87
2017-02-10T07:04:03.385Z,23.91
2017-02-10T07:05:02.944Z,23.84
2017-02-10T07:06:03.401Z,23.9
2017-02-10T07:07:03.347Z,23.91
2017-02-10T07:08:03.817Z,23.84
2017-02-10T07:09:03.017Z,23.88
2017-02-10T07:10:03.469Z,23.91
2017-02-10T07:11:03.374Z,23.84
2017-02-10T07:12:03.479Z,23.91
2017-02-10T07:13:03.490Z,23.93
2017-02-10T07:14:05.394Z,23.91
2017-02-10T07:15:03.456Z,23.88
2017-02-10T07:16:03.012Z,23.94
2017-02-10T07:17:03.118Z,23.9
2017-02-10T07:18:03.079Z,23.93
2017-02-10T07:19:03.473Z,23.88
2017-02-10T07:20:03.032Z,23.87
2017-02-10T07:21:05.466Z,23.88
2017-02-10T07:22:03.444Z,23.91
2017-02-10T07:23:03.502Z,23.94
2017-02-10T07:24:03.603Z,23.95
2017-02-10T07:25:03.461Z,23.95
2017-02-10T07:26:03.467Z,24
2017-02-10T07:27:03.527Z,24.06
2017-02-10T07:28:03.539Z,24.24
2017-02-10T07:29:03.487Z,24.34
2017-02-10T07:30:03.547Z,24.53
2017-02-10T07:31:03.254Z,24.65
2017-02-10T07:32:03.461Z,24.88
2017-02-10T07:33:03.563Z,24.98
2017-02-10T07:34:03.618Z,25.13
2017-02-10T07:35:03.612Z,25.15
2017-02-10T07:36:03.633Z,25.25
2017-02-10T07:37:03.539Z,25.39
2017-02-10T07:38:03.642Z,25.55
2017-02-10T07:39:03.603Z,25.57
2017-02-10T07:40:03.606Z,25.6
2017-02-10T07:41:03.563Z,25.73
2017-02-10T07:42:03.719Z,25.79
2017-02-10T07:43:04.733Z,25.83
2017-02-10T07:44:03.682Z,25.76
2017-02-10T07:45:03.639Z,25.85
2017-02-10T07:46:03.693Z,25.85
2017-02-10T07:47:03.701Z,25.97
2017-02-10T07:48:03.710Z,25.98
2017-02-10T07:49:03.665Z,25.88
2017-02-10T07:50:03.671Z,26.12
2017-02-10T07:51:03.726Z,26.18
2017-02-10T07:52:03.294Z,26.09
2017-02-10T07:53:03.694Z,26.15
2017-02-10T07:54:04.700Z,26.15
2017-02-10T07:55:03.761Z,26.2
2017-02-10T07:56:03.322Z,26.15
2017-02-10T07:57:03.330Z,26.2
2017-02-10T07:58:03.725Z,26.25
2017-02-10T07:59:03.336Z,26.13
2017-02-10T08:00:03.445Z,26.23
2017-02-10T08:01:03.796Z,26.32
2017-02-10T08:02:03.753Z,26.36
2017-02-10T08:03:03.416Z,26.33
2017-02-10T08:04:03.869Z,26.33
2017-02-10T08:05:04.479Z,26.36
2017-02-10T08:06:03.832Z,26.26
2017-02-10T08:07:03.392Z,26.35
2017-02-10T08:08:03.448Z,26.18
2017-02-10T08:09:03.854Z,26.21
2017-02-10T08:10:03.361Z,26.18
2017-02-10T08:11:03.866Z,26.1
2017-02-10T08:12:03.874Z,26.12
2017-02-10T08:13:03.783Z,26.12
2017-02-10T08:14:04.506Z,26.25
2017-02-10T08:15:03.848Z,26.25
2017-02-10T08:16:04.559Z,26.23
2017-02-10T08:17:03.864Z,26.21
2017-02-10T08:18:03.917Z,26.25
2017-02-10T08:19:03.876Z,26.12
2017-02-10T08:20:03.833Z,26.28
2017-02-10T08:21:03.839Z,26.2
2017-02-10T08:22:04.201Z,26.09
2017-02-10T08:23:03.908Z,26.32
2017-02-10T08:24:03.961Z,26.18
2017-02-10T08:25:04.927Z,26.21
2017-02-10T08:26:03.874Z,26.26
2017-02-10T08:27:04.434Z,26.26
2017-02-10T08:28:03.989Z,26.25
2017-02-10T08:29:03.552Z,26.26
2017-02-10T08:30:03.664Z,26.28
2017-02-10T08:31:04.062Z,26.25
2017-02-10T08:32:03.570Z,26.18
2017-02-10T08:33:03.529Z,26.28
2017-02-10T08:34:03.586Z,26.2
2017-02-10T08:35:03.991Z,26.32
2017-02-10T08:36:04.608Z,26.26
2017-02-10T08:37:04.008Z,26.23
2017-02-10T08:38:04.062Z,26.33
2017-02-10T08:39:04.023Z,26.35
2017-02-10T08:40:04.026Z,26.33
2017-02-10T08:41:04.038Z,26.33
2017-02-10T08:42:03.992Z,26.32
2017-02-10T08:43:04.050Z,26.18
2017-02-10T08:44:04.110Z,26.23
2017-02-10T08:45:03.671Z,26.2
2017-02-10T08:46:03.723Z,26.26
2017-02-10T08:47:04.528Z,26.26
2017-02-10T08:48:03.689Z,26.3
2017-02-10T08:49:03.753Z,26.28
2017-02-10T08:50:03.655Z,26.3
2017-02-10T08:51:04.095Z,26.43
2017-02-10T08:52:04.615Z,26.36
2017-02-10T08:53:03.726Z,26.51
2017-02-10T08:54:04.177Z,26.37
2017-02-10T08:55:04.139Z,26.4
2017-02-10T08:56:04.143Z,26.39
2017-02-10T08:57:04.201Z,26.4
2017-02-10T08:58:03.762Z,26.37
2017-02-10T08:59:04.116Z,26.5
2017-02-10T09:00:04.221Z,26.45
2017-02-10T09:01:04.283Z,26.37
2017-02-10T09:02:05.086Z,26.37
2017-02-10T09:03:03.403Z,26.47
2017-02-10T09:04:03.755Z,26.45
2017-02-10T09:05:03.767Z,26.44
2017-02-10T09:06:04.269Z,26.47
2017-02-10T09:07:04.172Z,26.57
2017-02-10T09:08:04.230Z,26.43
2017-02-10T09:09:04.286Z,26.57
2017-02-10T09:10:04.195Z,26.54
2017-02-10T09:11:05.195Z,26.4
2017-02-10T09:12:03.919Z,26.43
2017-02-10T09:13:04.819Z,26.44
2017-02-10T09:14:04.229Z,26.57
2017-02-10T09:15:04.278Z,26.58
2017-02-10T09:16:03.946Z,26.48
2017-02-10T09:17:04.348Z,26.47
2017-02-10T09:18:04.301Z,26.44
2017-02-10T09:19:04.313Z,26.44
2017-02-10T09:20:04.318Z,26.48
2017-02-10T09:21:04.276Z,26.39
2017-02-10T09:22:05.064Z,26.39
2017-02-10T09:23:04.291Z,26.44
2017-02-10T09:24:04.700Z,26.37
2017-02-10T09:25:04.354Z,26.39
2017-02-10T09:26:04.313Z,26.43
2017-02-10T09:27:04.368Z,26.47
2017-02-10T09:28:03.982Z,26.4
2017-02-10T09:29:04.331Z,26.36
2017-02-10T09:30:04.440Z,26.44
2017-02-10T09:31:04.403Z,26.35
2017-02-10T09:32:04.404Z,26.37
2017-02-10T09:33:05.380Z,26.39
2017-02-10T09:34:04.475Z,26.45
2017-02-10T09:35:04.579Z,26.4
2017-02-10T09:36:04.436Z,26.45
2017-02-10T09:37:04.394Z,26.45
2017-02-10T09:38:04.399Z,26.37
2017-02-10T09:39:04.455Z,26.43
2017-02-10T09:40:04.419Z,26.48
2017-02-10T09:41:04.426Z,26.48
2017-02-10T09:42:04.430Z,26.35
2017-02-10T09:43:04.500Z,26.45
2017-02-10T09:44:05.492Z,26.35
2017-02-10T09:45:03.713Z,26.25
2017-02-10T09:46:04.707Z,26.3
2017-02-10T09:47:04.569Z,26.26
2017-02-10T09:48:04.081Z,26.39
2017-02-10T09:49:04.487Z,26.32
2017-02-10T09:50:04.093Z,26.33
2017-02-10T09:51:04.151Z,26.18
2017-02-10T09:52:04.555Z,26.26
2017-02-10T09:53:04.115Z,26.3
2017-02-10T09:54:04.571Z,26.37
2017-02-10T09:55:05.414Z,26.43
2017-02-10T09:56:04.531Z,26.39
2017-02-10T09:57:04.593Z,26.48
2017-02-10T09:58:04.598Z,26.51
2017-02-10T09:59:04.597Z,26.63
2017-02-10T10:00:04.615Z,26.55
2017-02-10T10:01:04.671Z,26.58
2017-02-10T10:02:04.662Z,26.62
2017-02-10T10:03:04.585Z,26.52
2017-02-10T10:04:04.245Z,26.47
2017-02-10T10:05:04.251Z,26.6
2017-02-10T10:06:05.254Z,26.6
2017-02-10T10:07:04.664Z,26.55
2017-02-10T10:08:04.376Z,26.57
2017-02-10T10:09:04.681Z,26.63
2017-02-10T10:10:04.290Z,26.66
2017-02-10T10:11:04.699Z,26.73
2017-02-10T10:12:03.909Z,26.73
2017-02-10T10:13:04.667Z,26.69
2017-02-10T10:14:04.664Z,26.65
2017-02-10T10:15:05.674Z,26.6
2017-02-10T10:16:04.731Z,26.65
2017-02-10T10:17:05.344Z,26.63
2017-02-10T10:18:04.742Z,26.65
2017-02-10T10:19:04.806Z,26.72
2017-02-10T10:20:04.711Z,26.69
2017-02-10T10:21:04.771Z,26.57
2017-02-10T10:22:04.827Z,26.52
2017-02-10T10:23:04.782Z,26.66
2017-02-10T10:24:04.787Z,26.66
2017-02-10T10:25:04.801Z,26.57
2017-02-10T10:26:05.923Z,26.51
2017-02-10T10:27:04.715Z,26.47
2017-02-10T10:28:05.317Z,26.51
2017-02-10T10:29:04.876Z,26.54
2017-02-10T10:30:04.784Z,26.52
2017-02-10T10:31:04.450Z,26.44
2017-02-10T10:32:04.900Z,26.57
2017-02-10T10:33:04.905Z,26.54
2017-02-10T10:34:04.913Z,26.39
2017-02-10T10:35:04.472Z,26.51
2017-02-10T10:36:04.530Z,26.62
2017-02-10T10:37:05.590Z,26.63
2017-02-10T10:38:04.496Z,26.55
2017-02-10T10:39:05.463Z,26.55
2017-02-10T10:40:04.855Z,26.63
2017-02-10T10:41:04.868Z,26.58
2017-02-10T10:42:04.525Z,26.65
2017-02-10T10:43:04.879Z,26.65
2017-02-10T10:44:05.037Z,26.54
2017-02-10T10:45:04.994Z,26.62
2017-02-10T10:46:05.402Z,26.55
2017-02-10T10:47:05.048Z,26.32
2017-02-10T10:48:05.572Z,26.21
2017-02-10T10:49:05.076Z,26.4
2017-02-10T10:50:05.081Z,26.5
2017-02-10T10:51:05.043Z,26.47
2017-02-10T10:52:04.553Z,26.52
2017-02-10T10:53:04.609Z,26.47
2017-02-10T10:54:04.565Z,26.58
2017-02-10T10:55:04.652Z,26.57
2017-02-10T10:56:19.559Z,26.44
2017-02-10T10:57:19.516Z,26.4
2017-02-10T10:58:05.041Z,26.4
2017-02-10T10:59:05.408Z,26.45
2017-02-10T11:00:05.560Z,26.55
2017-02-10T11:01:05.014Z,26.52
2017-02-10T11:02:05.077Z,26.55
2017-02-10T11:03:06.102Z,26.5
2017-02-10T11:04:05.041Z,26.47
2017-02-10T11:05:05.092Z,26.47
2017-02-10T11:06:04.656Z,26.47
2017-02-10T11:07:04.665Z,26.48
2017-02-10T11:08:05.174Z,26.54
2017-02-10T11:09:04.733Z,26.54
2017-02-10T11:10:05.781Z,26.45
2017-02-10T11:11:05.147Z,26.45
2017-02-10T11:12:05.147Z,26.45
2017-02-10T11:13:05.155Z,26.54
2017-02-10T11:14:06.088Z,26.51
2017-02-10T11:15:05.167Z,26.48
2017-02-10T11:16:05.128Z,26.57
2017-02-10T11:17:05.233Z,26.51
2017-02-10T11:18:04.804Z,26.45
2017-02-10T11:19:05.160Z,26.48
2017-02-10T11:20:05.211Z,26.47
2017-02-10T11:21:06.115Z,26.52
2017-02-10T11:22:05.176Z,26.55
2017-02-10T11:23:05.484Z,26.65
2017-02-10T11:24:05.289Z,26.57
2017-02-10T11:25:05.247Z,26.45
2017-02-10T11:26:05.250Z,26.45
2017-02-10T11:27:04.817Z,26.37
2017-02-10T11:28:05.215Z,26.66
2017-02-10T11:29:05.273Z,26.57
2017-02-10T11:30:04.932Z,26.5
2017-02-10T11:31:05.341Z,26.52
2017-02-10T11:32:06.144Z,26.45
2017-02-10T11:33:04.464Z,26.5
2017-02-10T11:34:05.263Z,26.52
2017-02-10T11:35:05.319Z,26.6
2017-02-10T11:36:06.301Z,26.6
2017-02-10T11:37:05.330Z,26.58
2017-02-10T11:38:05.291Z,26.51
2017-02-10T11:39:05.298Z,26.52
2017-02-10T11:40:05.018Z,26.51
2017-02-10T11:41:05.313Z,26.45
2017-02-10T11:42:05.417Z,26.47
2017-02-10T11:43:05.977Z,26.45
2017-02-10T11:44:05.387Z,26.51
2017-02-10T11:45:05.341Z,26.55
2017-02-10T11:46:04.561Z,26.58
2017-02-10T11:47:06.384Z,26.47
2017-02-10T11:48:05.017Z,26.58
2017-02-10T11:49:05.422Z,26.55
2017-02-10T11:50:05.040Z,26.67
2017-02-10T11:51:04.993Z,26.52
2017-02-10T11:52:05.452Z,26.5
2017-02-10T11:53:05.554Z,26.52
2017-02-10T11:54:06.060Z,26.5
2017-02-10T11:55:05.475Z,26.62
2017-02-10T11:56:05.421Z,26.45
2017-02-10T11:57:05.479Z,26.52
2017-02-10T11:58:06.447Z,26.45
2017-02-10T11:59:05.500Z,26.48
2017-02-10T12:00:05.506Z,26.4
2017-02-10T12:01:05.118Z,26.48
2017-02-10T12:02:05.125Z,26.36
2017-02-10T12:03:05.530Z,26.35
2017-02-10T12:04:05.485Z,26.3
2017-02-10T12:05:05.842Z,26.33
2017-02-10T12:06:05.596Z,26.51
2017-02-10T12:07:05.315Z,26.44
2017-02-10T12:08:05.572Z,26.33
2017-02-10T12:09:06.747Z,26.51
2017-02-10T12:10:05.526Z,26.26
2017-02-10T12:11:05.593Z,26.45
2017-02-10T12:12:05.598Z,26.47
2017-02-10T12:13:05.656Z,26.52
2017-02-10T12:14:05.558Z,26.47
2017-02-10T12:15:05.173Z,26.47
2017-02-10T12:16:05.784Z,26.45
2017-02-10T12:17:05.637Z,26.47
2017-02-10T12:18:05.696Z,26.48
2017-02-10T12:19:05.948Z,26.54
2017-02-10T12:20:06.811Z,26.54
2017-02-10T12:21:05.723Z,26.45
2017-02-10T12:22:05.620Z,26.44
2017-02-10T12:23:05.685Z,26.52
2017-02-10T12:24:05.686Z,26.45
2017-02-10T12:25:05.744Z,26.48
2017-02-10T12:26:05.705Z,26.51
2017-02-10T12:27:05.658Z,26.51
2017-02-10T12:28:05.664Z,26.36
2017-02-10T12:29:05.676Z,26.32
2017-02-10T12:30:05.731Z,26.47
2017-02-10T12:31:06.788Z,26.51
2017-02-10T12:32:05.697Z,26.4
2017-02-10T12:33:05.751Z,26.4
2017-02-10T12:34:05.758Z,26.33
2017-02-10T12:35:05.718Z,26.3
2017-02-10T12:36:05.378Z,26.35
2017-02-10T12:37:05.386Z,26.45
2017-02-10T12:38:05.991Z,26.48
2017-02-10T12:39:05.796Z,26.57
2017-02-10T12:40:05.408Z,26.52
2017-02-10T12:41:05.422Z,26.47
2017-02-10T12:42:06.660Z,26.39
2017-02-10T12:43:05.830Z,26.48
2017-02-10T12:44:05.438Z,26.47
2017-02-10T12:45:06.056Z,26.65
2017-02-10T12:46:05.505Z,26.62
2017-02-10T12:47:05.458Z,26.5
2017-02-10T12:48:05.865Z,26.52
2017-02-10T12:49:05.918Z,26.55
2017-02-10T12:50:05.832Z,26.66
2017-02-10T12:51:05.865Z,26.69
2017-02-10T12:52:05.939Z,26.67
2017-02-10T12:53:06.898Z,26.65
2017-02-10T12:54:05.904Z,26.63
2017-02-10T12:55:05.465Z,26.66
2017-02-10T12:56:05.921Z,26.55
2017-02-10T12:57:05.930Z,26.48
2017-02-10T12:58:05.891Z,26.5
2017-02-10T12:59:06.247Z,26.51
2017-02-10T13:00:05.551Z,26.47
2017-02-10T13:01:05.957Z,26.52
2017-02-10T13:02:05.963Z,26.47
2017-02-10T13:03:05.591Z,26.44
2017-02-10T13:04:06.926Z,26.48